Time;durP1;ratioP1;P1;durP2;ratioP2;P2;SDS_P1;SDS_P2;PMS_P1;PMS_P2;Temp;Humidity;BMP_temperature;BMP_pressure;BME280_temperature;BME280_humidity;BME280_pressure;Samples;Min_cycle;Max_cycle;Signal;HPM_P1;HPM_P2
2021/04/11 00:01:15;;;;;;;19.60;12.37;;;;;;;7.21;51.54;94989.70;833178;71;33125;-78
2021/04/11 00:16:18;;;;;;;17.52;12.90;;;;;;;7.13;51.92;94990.72;826840;71;32772;-78
2021/04/11 00:31:10;;;;;;;23.00;14.18;;;;;;;7.03;52.27;94995.35;827390;71;30413;-79
2021/04/11 00:46:19;;;;;;;20.65;13.60;;;;;;;6.91;53.41;94998.14;826560;71;33062;-76
2021/04/11 01:01:16;;;;;;;17.75;10.65;;;;;;;6.75;53.55;95003.00;833171;71;32781;-77
2021/04/11 01:16:09;;;;;;;13.35;9.75;;;;;;;6.60;54.18;95003.68;828056;71;30498;-77
2021/04/11 01:31:16;;;;;;;20.05;10.55;;;;;;;6.37;53.82;94996.47;826774;71;32775;-79
2021/04/11 01:46:10;;;;;;;15.35;8.73;;;;;;;6.32;54.31;95013.34;833490;71;30214;-78
2021/04/11 02:01:20;;;;;;;10.63;7.55;;;;;;;6.19;54.65;95014.55;833411;71;32708;-76
2021/04/11 02:16:18;;;;;;;12.65;8.75;;;;;;;6.04;54.82;95007.10;827412;71;32699;-77
2021/04/11 02:31:17;;;;;;;11.22;8.45;;;;;;;5.98;55.37;94998.44;827035;71;33210;-78
2021/04/11 02:46:15;;;;;;;14.98;9.93;;;;;;;5.87;55.32;95003.27;826009;71;31335;-77
2021/04/11 03:01:49;;;;;;;12.95;9.85;;;;;;;5.70;55.74;95002.84;834857;71;32722;-76
2021/04/11 03:16:10;;;;;;;13.03;10.00;;;;;;;5.64;56.29;95007.72;827807;71;30825;-78
2021/04/11 03:31:19;;;;;;;13.18;9.20;;;;;;;5.61;56.20;95008.19;827424;71;33021;-76
2021/04/11 03:46:40;;;;;;;15.98;10.18;;;;;;;5.49;56.22;95011.42;832839;71;33416;-78
2021/04/11 04:01:25;;;;;;;14.03;9.93;;;;;;;5.50;56.43;95039.04;835447;71;32724;-76
2021/04/11 04:16:20;;;;;;;16.90;10.60;;;;;;;7.75;52.21;95060.45;827533;71;30271;-78
2021/04/11 04:31:36;;;;;;;13.58;11.00;;;;;;;10.07;47.43;95062.49;826270;71;32676;-78
2021/04/11 04:46:13;;;;;;;14.93;10.70;;;;;;;11.84;43.65;95065.81;827557;71;30787;-77
2021/04/11 05:01:20;;;;;;;15.43;11.65;;;;;;;12.66;40.57;95071.34;826952;71;33203;-77
2021/04/11 05:16:17;;;;;;;15.38;13.20;;;;;;;13.73;38.53;95089.12;833172;71;33274;-78
2021/04/11 05:31:12;;;;;;;17.20;14.55;;;;;;;14.43;36.97;95080.82;833666;71;30194;-79
2021/04/11 05:46:17;;;;;;;20.23;14.30;;;;;;;15.96;34.62;95084.08;827473;71;31970;-78
2021/04/11 06:01:17;;;;;;;19.75;14.30;;;;;;;17.48;32.50;95077.11;833819;71;33107;-76
2021/04/11 06:16:14;;;;;;;25.60;19.20;;;;;;;18.61;31.04;95066.47;827168;71;29818;-76
2021/04/11 06:31:31;;;;;;;24.18;18.82;;;;;;;19.54;29.51;95071.04;826725;71;32847;-78
2021/04/11 06:46:46;;;;;;;22.40;19.82;;;;;;;19.66;28.73;95065.52;834041;71;33327;-78
2021/04/11 07:01:34;;;;;;;19.17;16.93;;;;;;;20.69;27.55;95067.17;828546;71;32711;-79
2021/04/11 07:16:24;;;;;;;17.10;14.98;;;;;;;21.00;26.20;95081.97;827593;71;32059;-77
2021/04/11 07:31:26;;;;;;;21.87;19.45;;;;;;;20.10;27.17;95076.45;827607;71;32733;-77
2021/04/11 07:46:41;;;;;;;17.32;13.43;;;;;;;19.80;38.74;95045.47;827381;71;30199;-78
2021/04/11 08:01:45;;;;;;;18.77;15.00;;;;;;;21.20;30.76;95060.73;788583;73;33088;-79
2021/04/11 08:16:31;;;;;;;19.00;14.83;;;;;;;20.24;27.23;95072.13;819400;71;32814;-77
2021/04/11 08:31:57;;;;;;;16.05;14.45;;;;;;;19.29;27.77;95053.48;820367;71;32969;-76
2021/04/11 09:01:48;;;;;;;19.48;15.75;;;;;;;18.52;28.93;95034.65;827040;71;32819;-78
2021/04/11 09:16:33;;;;;;;18.23;15.15;;;;;;;19.21;27.77;95028.52;822765;71;33236;-77
2021/04/11 09:31:42;;;;;;;14.60;12.85;;;;;;;20.11;25.87;95017.48;820882;71;32802;-77
2021/04/11 09:46:30;;;;;;;12.93;11.28;;;;;;;20.36;25.02;94991.57;819885;71;32201;-76
2021/04/11 10:01:33;;;;;;;9.35;8.35;;;;;;;20.65;23.89;94992.95;819040;71;32117;-79
2021/04/11 10:16:46;;;;;;;8.78;7.92;;;;;;;20.36;23.47;94986.23;827010;71;32967;-79
2021/04/11 10:31:29;;;;;;;7.03;6.35;;;;;;;22.53;24.71;94977.78;833322;71;30768;-75
2021/04/11 10:46:33;;;;;;;7.10;6.33;;;;;;;20.59;22.17;94971.08;833216;71;32741;-75
2021/04/11 11:01:41;;;;;;;7.25;5.50;;;;;;;21.04;21.87;94941.19;827777;71;33169;-76
2021/04/11 11:16:31;;;;;;;9.00;8.00;;;;;;;20.89;30.00;94946.16;826668;71;33167;-77
2021/04/11 11:31:35;;;;;;;8.15;5.50;;;;;;;20.57;22.90;94891.95;819480;71;31475;-78
2021/04/11 11:46:24;;;;;;;7.05;5.50;;;;;;;20.02;24.07;94908.95;828305;71;30391;-76
2021/04/11 12:01:35;;;;;;;11.00;6.35;;;;;;;19.88;24.38;94895.98;832963;71;32771;-75
2021/04/11 12:16:34;;;;;;;7.08;5.22;;;;;;;20.45;23.44;94890.69;827018;71;32758;-77
2021/04/11 12:31:52;;;;;;;6.47;5.62;;;;;;;19.88;23.99;94868.02;826396;71;33017;-77
2021/04/11 12:46:28;;;;;;;6.30;5.70;;;;;;;20.43;23.31;94840.37;828295;71;32719;-78
2021/04/11 13:01:26;;;;;;;6.20;5.50;;;;;;;20.55;23.14;94826.97;826676;71;32699;-79
2021/04/11 13:16:27;;;;;;;5.25;4.75;;;;;;;20.61;22.77;94800.86;827618;71;30292;-76
2021/04/11 13:31:28;;;;;;;5.25;4.75;;;;;;;20.64;23.24;94806.06;834340;71;32694;-79
2021/04/11 13:46:54;;;;;;;6.37;5.70;;;;;;;20.86;23.04;94796.11;826890;71;32688;-76
2021/04/11 14:01:13;;;;;;;5.50;4.95;;;;;;;20.40;22.93;94799.19;834256;71;30312;-78
2021/04/11 14:16:18;;;;;;;6.20;5.25;;;;;;;19.43;23.46;94806.99;828251;71;30259;-78
2021/04/11 14:31:41;;;;;;;6.65;4.95;;;;;;;18.51;23.79;94797.91;828990;71;29799;-76
2021/04/11 14:46:18;;;;;;;5.65;4.50;;;;;;;18.47;23.78;94790.91;826914;71;32707;-77
2021/04/11 15:16:15;;;;;;;4.97;3.90;;;;;;;18.19;23.63;94783.00;827323;71;30269;-75
2021/04/11 15:31:21;;;;;;;4.60;4.15;;;;;;;18.03;23.70;94788.72;827551;71;30782;-77
2021/04/11 15:46:28;;;;;;;4.70;4.30;;;;;;;17.93;24.75;94789.13;827710;71;30542;-79
2021/04/11 16:01:20;;;;;;;4.45;4.05;;;;;;;17.57;24.60;94798.45;827495;71;29864;-76
2021/04/11 16:16:33;;;;;;;6.53;5.90;;;;;;;17.36;25.31;94797.90;827116;70;32800;-80
2021/04/11 16:31:33;;;;;;;6.75;5.80;;;;;;;17.08;26.45;94804.23;827691;70;32723;-77
2021/04/11 16:46:23;;;;;;;8.70;6.80;;;;;;;16.59;27.06;94807.80;833072;71;32705;-82
2021/04/11 17:01:20;;;;;;;10.63;7.83;;;;;;;16.01;28.41;94817.91;832911;70;32752;-84
2021/04/11 17:16:31;;;;;;;16.52;9.85;;;;;;;15.40;30.16;94841.13;826998;71;31590;-81
2021/04/11 17:31:22;;;;;;;17.92;10.80;;;;;;;14.51;31.54;94858.08;827324;71;30281;-83
